createdAt,value
2022-07-26T00:00:47.921Z,12.25
2022-07-26T00:05:46.080Z,12.35
2022-07-26T00:08:16.497Z,12.35
2022-07-26T00:10:48.336Z,13.60
2022-07-26T00:13:19.425Z,13.65
2022-07-26T00:15:52.207Z,14.23
2022-07-26T00:18:22.004Z,11.13
2022-07-26T00:20:51.351Z,11.75
2022-07-26T00:23:21.411Z,12.93
2022-07-26T00:25:50.574Z,12.48
2022-07-26T00:28:19.796Z,12.60
2022-07-26T00:30:50.898Z,13.70
2022-07-26T00:33:20.101Z,13.18
2022-07-26T00:35:49.439Z,12.60
2022-07-26T00:38:18.812Z,11.88
2022-07-26T00:40:47.928Z,12.95
2022-07-26T00:43:17.122Z,11.55
2022-07-26T00:45:46.630Z,13.30
2022-07-26T00:48:17.842Z,12.70
2022-07-26T00:50:50.718Z,11.95
2022-07-26T00:53:21.989Z,12.93
2022-07-26T00:55:52.298Z,12.05
2022-07-26T00:58:21.468Z,13.75
2022-07-26T01:00:50.565Z,12.90
2022-07-26T01:03:21.776Z,15.40
2022-07-26T01:05:51.235Z,11.85
2022-07-26T01:08:20.625Z,13.32
2022-07-26T01:10:49.912Z,13.65
2022-07-26T01:13:21.781Z,13.73
2022-07-26T01:15:51.875Z,11.45
2022-07-26T01:18:23.056Z,14.30
2022-07-26T01:20:54.715Z,12.88
2022-07-26T01:23:25.966Z,11.60
2022-07-26T01:25:55.778Z,12.07
2022-07-26T01:28:26.019Z,12.65
2022-07-26T01:30:55.239Z,14.73
2022-07-26T01:33:27.883Z,12.93
2022-07-26T01:35:57.291Z,15.85
2022-07-26T01:38:28.448Z,13.23
2022-07-26T01:40:57.730Z,13.52
2022-07-26T01:43:26.863Z,16.85
2022-07-26T01:45:57.526Z,14.95
2022-07-26T01:48:27.731Z,14.57
2022-07-26T01:50:57.059Z,13.35
2022-07-26T01:53:28.174Z,14.35
2022-07-26T01:55:57.439Z,13.75
2022-07-26T01:58:26.598Z,13.98
2022-07-26T02:00:55.873Z,13.48
2022-07-26T02:03:24.903Z,13.10
2022-07-26T02:05:54.113Z,14.43
2022-07-26T02:08:23.269Z,15.57
2022-07-26T02:11:03.780Z,12.20
2022-07-26T02:13:35.383Z,15.07
2022-07-26T02:16:07.790Z,13.25
2022-07-26T02:18:40.077Z,14.10
2022-07-26T02:21:09.856Z,12.80
2022-07-26T02:23:41.628Z,13.45
2022-07-26T02:26:13.629Z,15.13
2022-07-26T02:28:42.907Z,13.38
2022-07-26T02:31:15.435Z,12.60
2022-07-26T02:33:44.990Z,14.05
2022-07-26T02:36:14.164Z,13.50
2022-07-26T02:38:43.315Z,12.48
2022-07-26T02:41:14.461Z,14.48
2022-07-26T02:43:43.602Z,12.98
2022-07-26T02:46:12.876Z,13.77
2022-07-26T02:48:42.303Z,13.95
2022-07-26T02:51:11.810Z,13.05
2022-07-26T02:53:41.142Z,13.35
2022-07-26T02:56:10.929Z,13.77
2022-07-26T02:58:42.034Z,14.05
2022-07-26T03:01:11.505Z,15.35
2022-07-26T03:03:47.226Z,13.43
2022-07-26T03:06:19.869Z,13.95
2022-07-26T03:08:49.326Z,16.05
2022-07-26T03:11:18.485Z,13.48
2022-07-26T03:13:51.897Z,14.30
2022-07-26T03:16:24.783Z,13.00
2022-07-26T03:18:56.623Z,14.10
2022-07-26T03:21:25.870Z,13.95
2022-07-26T03:23:55.345Z,13.63
2022-07-26T03:26:24.940Z,13.98
2022-07-26T03:28:56.155Z,13.80
2022-07-26T03:31:25.901Z,14.85
2022-07-26T03:33:59.885Z,16.35
2022-07-26T03:36:32.358Z,12.73
2022-07-26T03:39:01.722Z,15.50
2022-07-26T03:41:31.231Z,14.70
2022-07-26T03:44:02.225Z,12.93
2022-07-26T03:46:31.666Z,11.75
2022-07-26T03:49:00.992Z,13.05
2022-07-26T03:51:30.546Z,12.05
2022-07-26T03:53:59.618Z,12.55
2022-07-26T03:56:31.390Z,11.75
2022-07-26T03:59:05.289Z,11.07
2022-07-26T04:01:35.401Z,14.45
2022-07-26T04:04:04.975Z,14.00
2022-07-26T04:06:34.177Z,13.50
2022-07-26T04:09:06.463Z,12.27
2022-07-26T04:11:37.427Z,12.05
2022-07-26T04:14:08.998Z,13.00
2022-07-26T04:16:43.286Z,10.60
2022-07-26T04:19:13.248Z,10.35
2022-07-26T04:21:42.975Z,10.10
2022-07-26T04:24:12.527Z,11.07
2022-07-26T04:26:41.738Z,12.13
2022-07-26T04:29:14.738Z,13.93
2022-07-26T04:31:44.153Z,10.77
2022-07-26T04:34:13.258Z,11.50
2022-07-26T04:36:42.451Z,11.00
2022-07-26T04:39:11.881Z,11.65
2022-07-26T04:41:41.109Z,10.20
2022-07-26T04:44:10.718Z,10.23
2022-07-26T04:46:44.950Z,8.82
2022-07-26T04:49:15.558Z,15.27
2022-07-26T04:51:44.963Z,9.80
2022-07-26T04:54:15.275Z,11.40
2022-07-26T04:56:45.692Z,12.95
2022-07-26T04:59:19.792Z,10.70
2022-07-26T05:01:53.013Z,9.13
2022-07-26T05:06:51.082Z,9.20
2022-07-26T05:09:20.419Z,12.90
2022-07-26T05:11:50.923Z,11.32
2022-07-26T05:14:20.273Z,10.82
2022-07-26T05:16:53.623Z,8.88
2022-07-26T05:19:25.125Z,10.38
2022-07-26T05:21:54.437Z,10.27
2022-07-26T05:24:23.602Z,9.55
2022-07-26T05:26:58.268Z,9.98
2022-07-26T05:29:28.375Z,10.10
2022-07-26T05:31:59.429Z,9.88
2022-07-26T05:34:28.835Z,9.40
2022-07-26T05:36:57.988Z,11.20
2022-07-26T05:39:27.261Z,11.80
2022-07-26T05:41:56.419Z,10.00
2022-07-26T05:44:26.522Z,10.25
2022-07-26T05:46:55.871Z,11.18
2022-07-26T05:49:27.113Z,11.05
2022-07-26T05:52:09.971Z,10.45
2022-07-26T05:54:39.135Z,11.55
2022-07-26T05:57:08.407Z,10.85
2022-07-26T05:59:37.626Z,10.85
2022-07-26T06:02:08.028Z,10.35
2022-07-26T06:07:09.490Z,10.95
2022-07-26T06:09:38.657Z,11.95
2022-07-26T06:12:08.781Z,9.80
2022-07-26T06:14:39.553Z,11.18
2022-07-26T06:17:08.859Z,11.80
2022-07-26T06:19:44.287Z,10.98
2022-07-26T06:22:16.638Z,11.10
2022-07-26T06:24:45.796Z,11.55
2022-07-26T06:27:15.120Z,9.23
2022-07-26T06:29:47.978Z,9.27
2022-07-26T06:32:17.572Z,9.63
2022-07-26T06:34:48.708Z,11.90
2022-07-26T06:37:18.109Z,11.82
2022-07-26T06:39:47.195Z,10.05
2022-07-26T06:42:16.474Z,10.77
2022-07-26T06:44:45.566Z,8.50
2022-07-26T06:47:14.893Z,9.57
2022-07-26T06:49:44.395Z,10.48
2022-07-26T06:52:15.638Z,6.40
2022-07-26T06:54:45.357Z,9.00
2022-07-26T06:57:14.831Z,9.82
2022-07-26T06:59:46.427Z,10.82
2022-07-26T07:02:16.028Z,13.30
2022-07-26T07:04:45.513Z,9.98
2022-07-26T07:07:16.812Z,8.82
2022-07-26T07:09:46.128Z,9.75
2022-07-26T07:12:15.397Z,9.43
2022-07-26T07:14:44.756Z,10.95
2022-07-26T07:17:19.932Z,10.93
2022-07-26T07:19:49.793Z,10.73
2022-07-26T07:22:21.048Z,10.75
2022-07-26T07:27:27.324Z,10.80
2022-07-26T07:29:56.742Z,10.40
2022-07-26T07:32:26.852Z,11.70
2022-07-26T07:34:57.788Z,10.30
2022-07-26T07:37:28.923Z,10.45
2022-07-26T07:40:18.207Z,9.63
2022-07-26T07:42:47.345Z,10.18
2022-07-26T07:45:16.898Z,10.80
2022-07-26T07:47:46.514Z,11.85
2022-07-26T07:50:15.863Z,11.68
2022-07-26T07:52:49.471Z,12.50
2022-07-26T07:55:36.355Z,8.38
2022-07-26T07:58:09.244Z,10.93
2022-07-26T08:00:39.147Z,11.35
2022-07-26T08:03:08.578Z,12.13
2022-07-26T08:05:40.438Z,12.05
2022-07-26T08:08:11.949Z,10.63
2022-07-26T08:10:51.701Z,12.95
2022-07-26T08:13:22.257Z,9.40
2022-07-26T08:15:52.168Z,10.50
2022-07-26T08:18:22.746Z,9.77
2022-07-26T08:23:24.705Z,9.55
2022-07-26T08:25:59.791Z,10.93
2022-07-26T08:28:48.613Z,12.18
2022-07-26T08:31:21.801Z,11.18
2022-07-26T08:33:51.227Z,11.43
2022-07-26T08:36:22.971Z,12.73
2022-07-26T08:38:54.377Z,10.50
2022-07-26T08:43:53.882Z,10.95
2022-07-26T08:46:27.052Z,10.60
2022-07-26T08:48:57.397Z,12.05
2022-07-26T08:51:27.931Z,11.60
2022-07-26T08:54:05.672Z,14.23
2022-07-26T08:56:37.437Z,11.45
2022-07-26T08:59:07.857Z,10.77
2022-07-26T09:01:37.209Z,11.05
2022-07-26T09:04:31.751Z,11.90
2022-07-26T09:07:07.577Z,14.43
2022-07-26T09:09:41.372Z,12.80
2022-07-26T09:12:18.709Z,12.25
2022-07-26T09:14:50.603Z,12.38
2022-07-26T09:20:09.186Z,12.02
2022-07-26T09:22:38.973Z,11.82
2022-07-26T09:25:23.705Z,11.25
2022-07-26T09:27:53.709Z,12.50
2022-07-26T09:30:23.587Z,10.90
2022-07-26T09:33:02.164Z,13.23
2022-07-26T09:35:51.146Z,11.32
2022-07-26T09:38:21.911Z,12.18
2022-07-26T09:40:55.011Z,11.20
2022-07-26T09:43:24.912Z,13.07
2022-07-26T09:46:10.436Z,10.95
2022-07-26T09:49:08.215Z,13.73
2022-07-26T09:51:41.651Z,12.50
2022-07-26T09:54:12.318Z,12.77
2022-07-26T09:56:52.670Z,11.18
2022-07-26T09:59:24.196Z,10.27
2022-07-26T10:01:56.976Z,13.90
2022-07-26T10:04:27.387Z,10.70
2022-07-26T10:06:57.739Z,12.23
2022-07-26T10:09:27.953Z,11.90
2022-07-26T10:12:03.854Z,12.77
2022-07-26T10:14:45.405Z,15.38
2022-07-26T10:17:46.876Z,10.45
2022-07-26T10:20:40.963Z,11.18
2022-07-26T10:23:39.067Z,12.02
2022-07-26T10:26:10.877Z,12.07
2022-07-26T10:28:43.623Z,14.02
2022-07-26T10:31:34.335Z,10.65
2022-07-26T10:34:04.342Z,9.70
2022-07-26T10:36:36.997Z,11.20
2022-07-26T10:39:13.241Z,14.20
2022-07-26T10:41:45.361Z,11.45
2022-07-26T10:44:25.137Z,11.18
2022-07-26T10:47:15.403Z,11.18
2022-07-26T10:49:55.100Z,11.15
2022-07-26T10:52:27.580Z,11.68
2022-07-26T10:55:18.861Z,12.63
2022-07-26T10:57:50.050Z,12.77
2022-07-26T11:00:24.791Z,11.85
2022-07-26T11:02:59.953Z,15.48
2022-07-26T11:05:34.507Z,11.50
2022-07-26T11:08:08.745Z,11.40
2022-07-26T11:10:40.713Z,11.00
2022-07-26T11:13:12.791Z,11.82
2022-07-26T11:15:46.640Z,11.02
2022-07-26T11:18:23.855Z,11.32
2022-07-26T11:20:58.391Z,12.90
2022-07-26T11:23:31.675Z,11.18
2022-07-26T11:26:19.914Z,11.35
2022-07-26T11:29:06.128Z,11.38
2022-07-26T11:31:49.327Z,11.07
2022-07-26T11:34:23.744Z,11.23
2022-07-26T11:36:55.116Z,12.85
2022-07-26T11:39:27.181Z,12.50
2022-07-26T11:41:59.965Z,11.70
2022-07-26T11:44:30.507Z,14.65
2022-07-26T11:47:02.558Z,11.65
2022-07-26T11:50:00.144Z,12.55
2022-07-26T11:52:25.525Z,12.65
2022-07-26T11:54:56.339Z,13.45
2022-07-26T11:57:31.087Z,11.90
2022-07-26T12:00:01.691Z,11.95
2022-07-26T12:02:42.695Z,11.38
2022-07-26T12:05:16.595Z,12.32
2022-07-26T12:08:00.888Z,11.18
2022-07-26T12:10:30.635Z,11.48
2022-07-26T12:13:10.849Z,12.07
2022-07-26T12:15:48.106Z,11.05
2022-07-26T12:18:27.570Z,11.57
2022-07-26T12:21:06.550Z,12.38
2022-07-26T12:23:44.341Z,10.77
2022-07-26T12:26:26.333Z,14.52
2022-07-26T12:28:56.772Z,11.13
2022-07-26T12:31:31.667Z,12.60
2022-07-26T12:34:03.195Z,11.63
2022-07-26T12:36:35.766Z,11.30
2022-07-26T12:39:05.226Z,12.57
2022-07-26T12:41:35.972Z,10.23
2022-07-26T12:44:05.988Z,13.18
2022-07-26T12:46:35.861Z,11.53
2022-07-26T12:49:07.361Z,11.38
2022-07-26T12:57:47.944Z,12.77
2022-07-26T13:00:19.267Z,11.85
2022-07-26T13:02:48.578Z,9.50
2022-07-26T13:05:18.026Z,11.25
2022-07-26T13:07:47.352Z,11.27
2022-07-26T13:10:34.198Z,11.13
2022-07-26T13:13:08.338Z,10.50
2022-07-26T13:15:38.115Z,9.75
2022-07-26T13:18:09.003Z,12.93
2022-07-26T13:20:39.179Z,13.05
2022-07-26T13:23:11.409Z,11.60
2022-07-26T13:25:41.338Z,9.50
2022-07-26T13:30:44.762Z,10.38
2022-07-26T13:33:16.205Z,6.88
2022-07-26T13:35:45.469Z,6.93
2022-07-26T13:38:19.852Z,11.93
2022-07-26T13:40:50.302Z,12.55
2022-07-26T13:43:22.558Z,9.90
2022-07-26T13:45:51.958Z,7.60
2022-07-26T13:48:21.462Z,9.30
2022-07-26T13:50:50.829Z,8.05
2022-07-26T13:53:20.041Z,10.18
2022-07-26T13:55:49.158Z,10.40
2022-07-26T13:58:21.062Z,6.40
2022-07-26T14:00:52.536Z,9.40
2022-07-26T14:03:21.920Z,7.35
2022-07-26T14:05:51.243Z,9.43
2022-07-26T14:08:20.652Z,12.63
2022-07-26T14:10:50.023Z,12.65
2022-07-26T14:13:19.319Z,11.02
2022-07-26T14:15:48.767Z,9.57
2022-07-26T14:18:20.107Z,8.68
2022-07-26T14:23:18.281Z,8.57
2022-07-26T14:25:47.530Z,12.40
2022-07-26T14:28:16.647Z,7.25
2022-07-26T14:30:46.168Z,8.95
2022-07-26T14:33:15.473Z,9.75
2022-07-26T14:35:47.031Z,10.18
2022-07-26T14:38:23.343Z,11.25
2022-07-26T14:40:55.009Z,10.00
2022-07-26T14:43:24.180Z,13.15
2022-07-26T14:45:54.495Z,10.30
2022-07-26T14:48:51.858Z,9.70
2022-07-26T14:51:14.992Z,12.02
2022-07-26T14:56:13.754Z,8.90
2022-07-26T14:58:43.216Z,11.65
2022-07-26T15:01:13.015Z,9.25
2022-07-26T15:03:42.706Z,8.15
2022-07-26T15:06:11.981Z,10.90
2022-07-26T15:08:43.163Z,11.18
2022-07-26T15:13:41.204Z,8.02
2022-07-26T15:16:10.648Z,6.75
2022-07-26T15:18:39.923Z,7.63
2022-07-26T15:21:09.903Z,7.65
2022-07-26T15:23:39.650Z,13.30
2022-07-26T15:26:11.494Z,7.97
2022-07-26T15:28:40.880Z,7.72
2022-07-26T15:31:12.214Z,9.13
2022-07-26T15:33:41.443Z,9.15
2022-07-26T15:36:11.188Z,9.18
2022-07-26T15:38:44.776Z,10.57
2022-07-26T15:41:16.211Z,7.35
2022-07-26T15:43:49.001Z,9.77
2022-07-26T15:46:19.215Z,9.13
2022-07-26T15:48:49.424Z,10.23
2022-07-26T15:51:19.047Z,10.55
2022-07-26T15:53:48.468Z,11.07
2022-07-26T15:56:19.996Z,11.98
2022-07-26T15:58:49.343Z,10.85
2022-07-26T16:01:19.584Z,11.95
2022-07-26T16:03:50.205Z,15.00
2022-07-26T16:06:19.712Z,17.75
2022-07-26T16:09:14.037Z,17.80
2022-07-26T16:11:40.718Z,12.18
2022-07-26T16:14:09.993Z,10.73
2022-07-26T16:16:39.152Z,12.23
2022-07-26T16:19:09.130Z,10.75
2022-07-26T16:21:39.949Z,15.10
2022-07-26T16:24:12.215Z,10.23
2022-07-26T16:26:43.562Z,9.48
2022-07-26T16:31:45.396Z,9.40
2022-07-26T16:34:18.327Z,10.93
2022-07-26T16:36:59.649Z,9.70
2022-07-26T16:39:29.675Z,11.48
2022-07-26T16:42:06.636Z,11.63
2022-07-26T16:44:37.907Z,9.57
2022-07-26T16:47:07.282Z,11.70
2022-07-26T16:49:36.447Z,12.88
2022-07-26T16:52:07.965Z,10.50
2022-07-26T16:54:37.292Z,9.40
2022-07-26T16:57:08.481Z,8.65
2022-07-26T16:59:37.651Z,10.05
2022-07-26T17:02:08.544Z,12.05
2022-07-26T17:04:37.740Z,11.98
2022-07-26T17:09:57.167Z,13.57
2022-07-26T17:12:28.630Z,11.25
2022-07-26T17:14:58.130Z,10.70
2022-07-26T17:17:27.864Z,11.90
2022-07-26T17:19:57.141Z,12.30
2022-07-26T17:22:26.602Z,14.02
2022-07-26T17:24:55.841Z,10.68
2022-07-26T17:27:25.348Z,11.15
2022-07-26T17:29:59.858Z,13.10
2022-07-26T17:32:33.019Z,13.00
2022-07-26T17:35:03.862Z,9.77
2022-07-26T17:37:34.534Z,12.32
2022-07-26T17:40:04.564Z,13.85
2022-07-26T17:42:36.986Z,12.25
2022-07-26T17:45:09.884Z,12.50
2022-07-26T17:47:39.254Z,12.00
2022-07-26T17:52:59.851Z,12.90
2022-07-26T17:55:29.188Z,10.23
2022-07-26T17:57:58.497Z,10.27
2022-07-26T18:00:29.727Z,15.40
2022-07-26T18:02:59.697Z,10.57
2022-07-26T18:05:34.881Z,12.48
2022-07-26T18:08:06.564Z,10.02
2022-07-26T18:10:35.772Z,15.38
2022-07-26T18:13:04.931Z,13.35
2022-07-26T18:15:36.229Z,12.82
2022-07-26T18:18:07.325Z,12.10
2022-07-26T18:20:36.574Z,15.15
2022-07-26T18:23:07.127Z,16.60
2022-07-26T18:25:36.712Z,13.82
2022-07-26T18:28:07.245Z,12.60
2022-07-26T18:30:39.457Z,13.50
2022-07-26T18:33:11.501Z,17.05
2022-07-26T18:35:41.046Z,38.58
2022-07-26T18:38:10.574Z,15.88
2022-07-26T18:40:40.018Z,13.13
2022-07-26T18:43:09.311Z,14.55
2022-07-26T18:45:40.588Z,16.15
2022-07-26T18:48:10.139Z,14.18
2022-07-26T18:50:40.592Z,16.30
2022-07-26T18:53:13.006Z,15.65
2022-07-26T18:55:44.466Z,14.23
2022-07-26T18:58:15.591Z,18.15
2022-07-26T19:00:47.469Z,16.13
2022-07-26T19:03:17.321Z,16.55
2022-07-26T19:05:46.549Z,18.08
2022-07-26T19:08:16.030Z,18.40
2022-07-26T19:10:46.066Z,17.88
2022-07-26T19:13:15.482Z,15.52
2022-07-26T19:15:46.612Z,13.93
2022-07-26T19:18:16.126Z,21.63
2022-07-26T19:20:45.659Z,15.23
2022-07-26T19:23:14.989Z,18.80
2022-07-26T19:25:44.423Z,15.07
2022-07-26T19:28:15.234Z,15.43
2022-07-26T19:30:46.881Z,16.73
2022-07-26T19:33:16.896Z,14.20
2022-07-26T19:35:46.237Z,16.55
2022-07-26T19:38:16.425Z,16.55
2022-07-26T19:40:46.037Z,14.95
2022-07-26T19:43:15.313Z,16.23
2022-07-26T19:45:46.716Z,13.70
2022-07-26T19:48:16.489Z,17.45
2022-07-26T19:50:45.738Z,17.75
2022-07-26T19:53:17.909Z,16.02
2022-07-26T19:55:47.404Z,16.60
2022-07-26T19:58:16.718Z,15.18
2022-07-26T20:00:48.111Z,13.02
2022-07-26T20:05:46.221Z,14.98
2022-07-26T20:08:15.551Z,13.57
2022-07-26T20:10:44.769Z,15.95
2022-07-26T20:13:14.072Z,15.20
2022-07-26T20:15:43.373Z,14.45
2022-07-26T20:18:14.671Z,14.55
2022-07-26T20:20:44.480Z,16.02
2022-07-26T20:23:13.642Z,15.35
2022-07-26T20:25:42.838Z,16.73
2022-07-26T20:28:14.753Z,24.30
2022-07-26T20:30:47.758Z,14.32
2022-07-26T20:33:19.146Z,16.27
2022-07-26T20:38:24.718Z,16.27
2022-07-26T20:40:54.004Z,13.55
2022-07-26T20:43:23.281Z,15.48
2022-07-26T20:45:56.515Z,14.88
2022-07-26T20:48:27.948Z,15.90
2022-07-26T20:50:57.444Z,16.92
2022-07-26T20:53:26.529Z,15.02
2022-07-26T20:55:55.811Z,16.77
2022-07-26T20:58:25.249Z,16.30
2022-07-26T21:00:54.533Z,15.07
2022-07-26T21:03:24.102Z,16.55
2022-07-26T21:05:55.404Z,14.65
2022-07-26T21:08:24.834Z,14.55
2022-07-26T21:10:53.972Z,15.77
2022-07-26T21:13:24.349Z,13.65
2022-07-26T21:15:53.903Z,14.32
2022-07-26T21:18:23.324Z,17.98
2022-07-26T21:20:54.453Z,16.42
2022-07-26T21:23:23.661Z,16.55
2022-07-26T21:25:58.143Z,17.08
2022-07-26T21:28:30.922Z,17.58
2022-07-26T21:31:00.087Z,18.67
2022-07-26T21:33:29.403Z,17.45
2022-07-26T21:36:00.546Z,16.15
2022-07-26T21:38:31.543Z,17.17
2022-07-26T21:41:01.007Z,16.90
2022-07-26T21:43:30.252Z,20.98
2022-07-26T21:45:59.635Z,17.52
2022-07-26T21:48:29.100Z,17.40
2022-07-26T21:51:00.318Z,18.40
2022-07-26T21:53:29.587Z,20.38
2022-07-26T21:55:58.975Z,17.05
2022-07-26T21:58:28.435Z,19.13
2022-07-26T22:01:03.066Z,21.73
2022-07-26T22:03:38.092Z,19.27
2022-07-26T22:08:38.937Z,18.10
2022-07-26T22:11:08.078Z,18.75
2022-07-26T22:13:37.910Z,19.38
2022-07-26T22:16:08.579Z,18.88
2022-07-26T22:18:40.202Z,20.00
2022-07-26T22:23:40.340Z,19.77
2022-07-26T22:26:09.462Z,19.65
2022-07-26T22:28:38.921Z,18.48
2022-07-26T22:31:08.573Z,17.15
2022-07-26T22:33:39.150Z,18.67
2022-07-26T22:36:13.799Z,27.90
2022-07-26T22:38:44.144Z,20.65
2022-07-26T22:41:13.604Z,21.05
2022-07-26T22:43:44.463Z,19.55
2022-07-26T22:46:14.188Z,20.23
2022-07-26T22:48:47.969Z,22.40
2022-07-26T22:51:20.584Z,23.13
2022-07-26T22:53:49.736Z,20.45
2022-07-26T22:56:19.761Z,21.17
2022-07-26T22:58:49.459Z,21.17
2022-07-26T23:01:18.596Z,26.98
2022-07-26T23:03:49.783Z,21.33
2022-07-26T23:06:32.016Z,24.75
2022-07-26T23:11:32.393Z,22.73
2022-07-26T23:14:01.816Z,22.90
2022-07-26T23:16:31.105Z,24.83
2022-07-26T23:19:00.968Z,21.38
2022-07-26T23:21:31.944Z,22.42
2022-07-26T23:24:01.082Z,20.10
2022-07-26T23:26:30.365Z,24.80
2022-07-26T23:29:00.565Z,29.33
2022-07-26T23:31:30.365Z,19.08
2022-07-26T23:33:59.557Z,25.17
2022-07-26T23:36:32.194Z,22.17
2022-07-26T23:39:02.156Z,23.85
2022-07-26T23:41:31.596Z,23.88
2022-07-26T23:44:00.784Z,25.08
2022-07-26T23:46:30.059Z,22.50
2022-07-26T23:49:00.172Z,21.35
2022-07-26T23:51:31.393Z,21.92
2022-07-26T23:54:00.685Z,20.73
2022-07-26T23:56:29.803Z,19.17
2022-07-26T23:58:59.011Z,19.15
